Date,TemperatureHighF,TemperatureAvgF,TemperatureLowF,DewpointHighF,DewpointAvgF,DewpointLowF,HumidityHigh,HumidityAvg,HumidityLow,PressureMaxIn,PressureMinIn,WindSpeedMaxMPH,WindSpeedAvgMPH,GustSpeedMaxMPH,PrecipitationSumIn
2013-1-1,40.0,37.0,32.0,38.0,35.9,32.0,100,96,88,0.00,40.00,2,-86,8,0.00
2013-1-2,43.0,37.0,29.0,37.0,34.3,29.0,100,90,73,0.00,40.00,3,1,8,0.00
2013-1-3,41.0,33.9,28.0,35.0,32.0,28.0,100,93,75,0.00,40.00,2,0,6,0.00
2013-1-4,42.0,41.5,40.0,42.0,41.4,40.0,100,99,96,0.00,40.00,1,1,6,0.00
2013-1-5,43.0,40.8,35.0,43.0,40.4,35.0,100,98,92,0.00,40.00,2,1,6,0.00
2013-1-6,43.0,40.7,40.0,41.0,39.5,38.0,100,95,88,0.00,40.00,2,1,7,0.00
2013-1-7,49.0,44.9,41.0,46.0,42.9,39.0,100,93,82,0.00,40.00,5,2,12,0.00
2013-1-8,51.0,41.7,32.0,48.0,29.7,-99.9,100,88,89,0.00,40.00,6,2,20,0.00
2013-1-9,44.0,39.3,36.0,42.0,38.2,35.0,100,96,92,0.00,40.00,5,2,12,0.00
2013-1-10,42.0,33.2,29.0,40.0,32.6,29.0,100,98,85,0.00,40.00,1,0,3,0.00
2013-1-11,39.0,27.6,24.0,35.0,26.6,23.0,100,97,52,0.00,40.00,2,-125,6,0.00
2013-1-12,38.0,26.8,22.0,29.0,25.5,21.0,100,95,69,0.00,40.00,2,0,6,0.00
2013-1-13,34.0,28.6,20.0,34.0,28.4,20.0,100,100,96,0.00,40.00,0,0,1,0.00
2013-1-14,35.0,32.6,31.0,35.0,32.6,31.0,100,100,100,0.00,40.00,0,0,2,0.00
2013-1-15,44.0,35.2,30.0,39.0,34.0,30.0,100,96,76,0.00,40.00,2,0,7,0.00
2013-1-16,39.0,28.1,27.0,36.0,16.5,-99.9,100,87,88,0.00,40.00,0,0,3,0.00
2013-1-17,40.0,35.3,30.0,36.0,34.0,30.0,100,95,85,0.00,40.00,2,1,6,0.00
2013-1-18,39.0,34.2,29.0,38.0,33.7,29.0,100,98,96,0.00,40.00,1,0,3,0.00
2013-1-19,41.0,35.7,28.0,37.0,34.1,28.0,100,93,85,0.00,40.00,2,2,7,0.00
2013-1-20,43.0,30.3,25.0,39.0,29.5,25.0,100,97,85,0.00,40.00,0,0,2,0.00
2013-1-21,44.0,31.1,23.0,38.0,29.6,23.0,100,95,79,0.00,40.00,2,0,5,0.00
2013-1-22,39.0,32.7,28.0,37.0,32.4,28.0,100,99,92,0.00,40.00,1,0,159,0.00
2013-1-23,42.0,37.9,33.0,41.0,37.6,33.0,100,99,96,0.00,40.00,2,1,6,0.00
2013-1-24,38.0,34.3,30.0,38.0,34.2,30.0,100,100,96,0.00,40.00,1,0,3,0.00
2013-1-25,47.0,40.5,33.0,45.0,39.4,33.0,100,96,82,0.00,40.00,2,1,6,0.00
2013-1-26,44.0,39.8,35.0,40.0,38.0,35.0,100,93,85,0.00,40.00,2,1,7,0.00
2013-1-27,40.0,39.0,38.0,38.0,37.3,37.0,96,93,88,0.00,40.00,6,2,13,0.00
2013-1-28,43.0,40.9,39.0,41.0,39.2,37.0,96,93,88,0.00,40.00,3,1,12,0.00
2013-1-29,46.0,43.8,42.0,44.0,43.0,42.0,100,97,92,0.00,40.00,2,1,10,0.00
2013-1-31,49.0,46.4,43.0,47.0,44.6,42.0,100,93,89,0.00,40.00,3,2,8,0.00
2013-2-1,45.0,42.6,41.0,42.0,40.6,39.0,100,92,82,0.00,40.00,2,0,5,0.00
2013-2-2,51.0,43.3,38.0,41.0,39.3,37.0,100,86,65,0.00,40.00,2,1,9,0.00
2013-2-3,45.0,40.6,32.0,43.0,39.4,32.0,100,96,85,0.00,40.00,6,1,14,0.00
2013-2-4,47.0,44.6,42.0,42.0,40.6,39.0,100,86,79,0.00,40.00,2,1,7,0.00
2013-2-5,47.0,43.9,40.0,43.0,41.0,39.0,96,89,82,0.00,40.00,9,4,27,0.00
2013-2-6,44.0,41.8,41.0,42.0,40.5,39.0,100,95,85,0.00,40.00,3,1,9,0.00
2013-2-7,43.0,37.8,30.0,39.0,35.8,30.0,100,92,82,0.00,40.00,7,2,17,0.00
2013-2-8,44.0,33.2,26.0,40.0,32.0,26.0,100,95,82,0.00,40.00,3,0,5,0.00
2013-2-9,44.0,40.3,34.0,43.0,39.8,34.0,100,98,96,0.00,40.00,1,0,3,0.00
2013-2-10,44.0,38.9,31.0,42.0,38.1,31.0,100,97,92,0.00,40.00,1,0,3,0.00
2013-2-11,50.0,44.4,40.0,44.0,41.9,39.0,100,91,79,0.00,40.00,5,1,10,0.00
2013-2-12,48.0,44.7,40.0,45.0,42.5,40.0,100,92,85,0.00,40.00,5,2,13,0.00
2013-2-13,46.0,43.0,39.0,41.0,40.2,38.0,96,90,79,0.00,40.00,3,1,7,0.00
2013-2-14,44.0,41.9,38.0,44.0,41.5,38.0,100,98,96,0.00,40.00,1,0,3,0.00
2013-2-15,45.0,43.7,41.0,44.0,42.7,41.0,100,96,92,0.00,40.00,1,1,5,0.00
2013-2-16,44.0,42.1,40.0,43.0,41.0,39.0,100,96,92,0.00,40.00,2,1,9,0.00
2013-2-17,47.0,40.1,34.0,39.0,36.7,33.0,100,88,68,0.00,40.00,5,1,9,0.00
2013-2-18,41.0,36.7,32.0,40.0,36.4,32.0,100,99,92,0.00,40.00,0,0,3,0.00
2013-2-19,44.0,36.4,30.0,41.0,35.5,30.0,100,97,79,0.00,40.00,1,0,3,0.00
2013-2-20,42.0,36.1,28.0,40.0,35.3,28.0,100,97,89,0.00,40.00,5,1,12,0.00
2013-2-21,42.0,39.3,37.0,39.0,37.5,36.0,100,93,85,0.00,40.00,5,2,14,0.00
2013-2-22,46.0,40.3,35.0,42.0,37.7,35.0,100,90,82,0.00,40.00,10,4,25,0.00
2013-2-23,46.0,41.0,37.0,38.0,36.3,35.0,100,84,67,0.00,40.00,3,2,10,0.00
2013-2-24,48.0,43.6,32.0,40.0,37.9,32.0,100,80,73,0.00,40.00,12,5,28,0.00
2013-2-25,45.0,40.0,32.0,39.0,36.0,32.0,100,86,65,0.00,40.00,7,3,21,0.00
2013-2-26,44.0,38.9,32.0,39.0,36.5,32.0,100,91,70,0.00,40.00,5,1,13,0.00
2013-2-27,45.0,39.6,34.0,40.0,37.8,34.0,100,93,79,0.00,40.00,5,1,13,0.00
2013-2-28,50.0,43.0,38.0,47.0,42.2,38.0,100,97,86,0.00,40.00,3,1,15,0.00
2013-3-1,52.0,50.1,49.0,47.0,47.0,47.0,92,89,82,0.00,40.00,6,5,24,0.00
2013-3-2,49.0,45.1,37.0,47.0,43.3,36.0,96,93,89,0.00,40.00,3,2,18,0.00
2013-3-3,47.0,37.0,29.0,38.0,33.9,29.0,100,89,62,0.00,40.00,6,1,10,0.00
2013-3-4,43.0,32.6,27.0,37.0,30.7,27.0,100,94,62,0.00,40.00,5,-94,12,0.00
2013-3-5,43.0,36.1,30.0,41.0,27.8,-99.9,100,89,88,0.00,40.00,1,0,3,0.00
2013-3-6,43.0,40.7,39.0,42.0,39.8,39.0,100,96,89,0.00,40.00,5,0,12,0.00
2013-3-7,46.0,41.0,38.0,41.0,39.4,38.0,100,94,79,0.00,40.00,3,0,12,0.00
2013-3-8,50.0,37.2,31.0,41.0,35.4,31.0,100,94,60,0.00,40.00,2,0,6,0.00
2013-3-9,51.0,39.4,29.0,40.0,35.2,28.0,100,86,60,0.00,40.00,5,1,9,0.00
2013-3-10,45.0,43.1,42.0,44.0,42.1,41.0,100,96,92,0.00,40.00,1,0,3,0.00
2013-3-11,45.0,42.4,32.0,43.0,41.1,32.0,100,95,85,0.00,40.00,2,1,7,0.00
2013-3-12,51.0,49.9,49.0,48.0,46.9,46.0,92,89,82,0.00,40.00,6,4,24,0.00
2013-3-13,52.0,50.7,49.0,49.0,47.4,47.0,96,88,82,0.00,40.00,12,5,23,0.00
2013-3-14,52.0,49.5,47.0,46.0,45.3,43.0,92,85,74,0.00,40.00,8,3,18,0.00
2013-3-15,54.0,45.2,32.0,47.0,43.1,32.0,100,92,77,0.00,40.00,3,1,12,0.00
2013-3-16,45.0,42.7,38.0,44.0,41.0,37.0,100,93,85,0.00,40.00,3,1,7,0.00
2013-3-17,43.0,38.7,37.0,38.0,36.4,35.0,100,91,79,0.00,40.00,5,2,10,0.00
2013-3-18,49.0,40.1,30.0,38.0,34.6,30.0,100,82,53,0.00,40.00,5,3,13,0.00
2013-3-19,44.0,36.9,29.0,39.0,35.2,29.0,100,94,70,0.00,40.00,3,1,9,0.00
2013-3-20,47.0,42.7,37.0,46.0,41.0,33.0,100,94,76,0.00,40.00,6,2,17,0.00
2013-3-21,41.0,36.0,34.0,38.0,34.0,32.0,100,92,88,0.00,40.00,5,2,12,0.00
2013-3-22,46.0,35.9,28.0,34.0,31.0,28.0,100,85,53,0.00,40.00,5,1,12,0.00
2013-3-23,45.0,36.6,30.0,37.0,32.3,30.0,100,86,57,0.00,40.00,2,1,6,0.00
2013-3-24,46.0,39.8,33.0,39.0,35.5,32.0,100,86,57,0.00,40.00,3,1,9,0.00
2013-3-25,53.0,43.9,32.0,39.0,33.1,27.0,100,72,36,0.00,40.00,3,1,9,0.00
2013-3-26,55.0,43.9,32.0,44.0,39.1,32.0,100,85,54,0.00,40.00,2,0,6,0.00
2013-3-27,57.0,44.4,40.0,47.0,41.7,39.0,100,91,54,0.00,40.00,2,0,7,0.00
2013-3-28,56.0,46.8,32.0,47.0,42.1,32.0,100,85,57,0.00,40.00,3,0,8,0.00
2013-3-29,57.0,43.7,39.0,46.0,41.9,38.0,100,94,64,0.00,40.00,3,0,8,0.00
2013-3-30,63.0,46.7,32.0,45.0,31.3,-99.9,100,78,39,0.00,40.00,5,2,13,0.00
2013-3-31,68.0,51.4,32.0,42.0,36.6,32.0,100,65,26,0.00,40.00,3,1,10,0.00
2013-4-1,57.0,49.3,33.0,46.0,43.0,33.0,100,79,66,0.00,40.00,8,2,13,0.00
2013-4-2,53.0,48.1,45.0,44.0,42.6,41.0,96,81,68,0.00,40.00,3,2,9,0.00
2013-4-3,56.0,49.0,42.0,46.0,42.8,40.0,100,81,54,0.00,40.00,3,1,9,0.00
2013-4-4,51.0,47.5,43.0,48.0,46.0,42.0,96,94,89,0.00,40.00,5,1,17,0.00
2013-4-5,53.0,49.3,45.0,49.0,46.4,44.0,96,89,77,0.00,40.00,5,2,14,0.00
2013-4-6,53.0,47.6,42.0,46.0,41.6,37.0,100,81,54,0.00,40.00,3,2,15,0.00
2013-4-7,49.0,44.7,41.0,44.0,41.9,40.0,100,90,70,0.00,40.00,3,1,9,0.00
2013-4-8,55.0,48.6,42.0,42.0,29.7,-99.9,92,67,59,0.00,40.00,7,3,14,0.00
2013-4-9,48.0,44.1,38.0,45.0,42.5,38.0,100,94,82,0.00,40.00,2,0,5,0.00
2013-4-10,51.0,48.1,44.0,48.0,44.3,41.0,96,86,68,0.00,40.00,7,3,29,0.00
2013-4-11,50.0,42.0,33.0,42.0,30.6,-99.9,100,75,51,0.00,40.00,3,2,9,0.00
2013-4-12,44.0,32.0,30.0,41.0,19.1,-99.9,100,84,89,0.00,40.00,6,1,12,0.00
2013-4-13,48.0,41.5,37.0,42.0,38.5,35.0,96,89,73,0.00,40.00,3,2,10,0.00
2013-4-15,55.0,44.5,32.0,41.0,37.8,32.0,100,80,46,0.00,40.00,3,1,9,0.00
2013-4-16,59.0,44.0,29.0,40.0,29.4,18.0,100,67,20,0.00,40.00,5,1,12,0.00
2013-4-17,55.0,44.0,32.0,40.0,36.7,32.0,100,76,50,0.00,40.00,7,3,14,0.00
2013-4-18,49.0,44.7,42.0,47.0,42.9,39.0,100,93,85,0.00,40.00,3,1,12,0.00
2013-4-19,53.0,49.9,47.0,50.0,47.2,45.0,96,90,79,0.00,40.00,3,2,12,0.00
2013-4-20,51.0,46.9,44.0,46.0,43.2,41.0,96,87,73,0.00,40.00,5,2,14,0.00
2013-4-21,53.0,45.0,38.0,45.0,41.0,38.0,100,87,56,0.00,40.00,7,3,14,0.00
2013-4-22,60.0,39.8,31.0,41.0,30.2,5.0,100,81,12,0.00,40.00,5,1,12,0.00
2013-4-23,62.0,48.3,29.0,41.0,33.8,29.0,100,63,29,0.00,40.00,3,2,10,0.00
2013-4-24,67.0,55.0,30.0,46.0,33.3,25.0,100,52,21,0.00,40.00,9,3,15,0.00
2013-4-25,63.0,52.1,35.0,46.0,41.4,35.0,100,71,44,0.00,40.00,6,2,10,0.00
2013-4-26,58.0,48.3,32.0,45.0,41.9,32.0,100,80,57,0.00,40.00,7,3,12,0.00
2013-4-27,53.0,49.9,46.0,49.0,46.0,41.0,96,86,71,0.00,40.00,3,2,10,0.00
2013-4-28,54.0,47.7,43.0,45.0,42.6,39.0,100,84,56,0.00,40.00,5,2,12,0.00
2013-4-29,52.0,46.0,39.0,43.0,35.5,31.0,96,69,47,0.00,40.00,6,3,12,0.00
2013-4-30,53.0,44.1,32.0,38.0,32.8,28.0,100,68,39,0.00,40.00,6,3,10,0.00
2013-5-1,58.0,43.9,28.0,39.0,31.6,28.0,100,69,31,0.00,40.00,5,1,9,0.00
2013-5-2,60.0,49.4,30.0,43.0,32.8,25.0,100,59,27,0.00,40.00,5,1,7,0.00
2013-5-3,67.0,56.7,31.0,47.0,40.3,31.0,100,59,34,0.00,40.00,5,3,12,0.00
2013-5-4,76.0,63.1,35.0,50.0,35.2,24.0,100,45,14,0.00,40.00,6,3,14,0.00
2013-5-5,80.0,62.1,38.0,53.0,42.1,38.0,100,58,23,0.00,40.00,5,2,10,0.00
2013-5-6,77.0,57.1,41.0,49.0,45.7,40.0,96,71,30,0.00,40.00,6,1,10,0.00
2013-5-7,65.0,53.9,46.0,51.0,48.1,46.0,100,82,60,0.00,40.00,7,3,13,0.00
2013-5-8,60.0,51.4,43.0,49.0,46.5,41.0,100,84,64,0.00,40.00,7,-81,12,0.00
2013-5-9,59.0,50.2,41.0,48.0,45.0,41.0,100,84,64,0.00,40.00,7,2,13,0.00
2013-5-10,66.0,51.1,38.0,51.0,45.2,37.0,100,82,58,0.00,40.00,3,1,7,0.00
2013-5-11,68.0,56.6,48.0,59.0,50.9,46.0,96,82,50,0.00,40.00,3,1,7,0.00
2013-5-12,63.0,58.1,55.0,58.0,54.1,52.0,93,86,67,0.00,40.00,6,2,18,0.00
2013-5-13,55.0,47.2,46.0,53.0,35.0,-99.9,96,80,79,0.00,40.00,6,2,17,0.00
2013-5-14,57.0,49.7,45.0,47.0,44.7,43.0,96,84,59,0.00,40.00,3,1,7,0.00
2013-5-15,58.0,51.3,47.0,50.0,47.5,45.0,100,87,66,0.00,40.00,3,1,5,0.00
2013-5-16,62.0,52.4,32.0,55.0,37.2,-99.9,100,88,64,0.00,40.00,3,1,12,0.00
2013-5-17,58.0,54.7,52.0,52.0,49.0,47.0,92,81,71,0.00,40.00,3,2,12,0.00
2013-5-18,56.0,48.3,49.0,51.0,38.6,-99.9,96,83,77,0.00,40.00,5,1,7,0.00
2013-5-19,63.0,45.4,32.0,49.0,25.9,-99.9,100,67,51,0.00,40.00,6,2,14,0.00
2013-5-20,56.0,47.7,32.0,46.0,43.4,32.0,100,85,68,0.00,40.00,5,2,12,0.00
2013-5-21,52.0,48.7,45.0,47.0,44.4,43.0,96,85,74,0.00,40.00,7,2,14,0.00
2013-5-22,59.0,50.0,45.0,48.0,44.1,42.0,96,81,57,0.00,40.00,3,2,7,0.00
2013-5-23,56.0,49.1,45.0,47.0,45.0,41.0,100,87,57,0.00,40.00,5,1,10,0.00
2013-5-24,58.0,49.9,32.0,49.0,43.7,32.0,100,81,59,0.00,40.00,5,1,13,0.00
2013-5-25,55.0,50.4,44.0,50.0,47.4,44.0,100,90,74,0.00,40.00,2,0,6,0.00
2013-5-26,54.0,51.2,47.0,52.0,49.3,46.0,100,93,86,0.00,40.00,2,0,5,0.00
2013-5-27,55.0,51.1,47.0,53.0,49.7,47.0,100,95,86,0.00,40.00,3,1,7,0.00
2013-5-28,56.0,52.1,49.0,50.0,48.0,46.0,92,86,74,0.00,40.00,6,2,17,0.00
2013-5-29,54.0,50.6,48.0,49.0,47.8,47.0,96,90,77,0.00,40.00,2,1,9,0.00
2013-5-30,54.0,50.8,47.0,49.0,46.6,44.0,96,86,68,0.00,40.00,3,1,13,0.00
2013-5-31,57.0,50.4,45.0,49.0,46.6,44.0,100,87,66,0.00,40.00,6,2,10,0.00
2013-6-1,61.0,54.3,47.0,52.0,49.2,46.0,100,84,64,0.00,40.00,2,0,6,0.00
2013-6-2,67.0,57.8,46.0,52.0,49.1,45.0,96,74,51,0.00,40.00,5,2,8,0.00
2013-6-3,66.0,54.1,42.0,50.0,47.2,41.0,96,79,56,0.00,40.00,6,3,13,0.00
2013-6-4,72.0,56.2,39.0,53.0,46.2,38.0,100,73,32,0.00,40.00,5,1,9,0.00
2013-6-5,68.0,60.0,49.0,55.0,52.6,48.0,96,77,62,0.00,40.00,9,3,15,0.00
2013-6-6,70.0,59.9,41.0,53.0,46.1,39.0,96,64,32,0.00,40.00,6,3,13,0.00
2013-6-7,61.0,50.0,32.0,52.0,44.4,32.0,100,81,66,0.00,40.00,2,1,6,0.00
2013-6-8,60.0,45.3,44.0,49.0,26.7,-99.9,96,70,62,0.00,40.00,6,2,12,0.00
2013-6-9,60.0,50.9,42.0,48.0,44.5,41.0,96,80,55,0.00,40.00,5,1,9,0.00
2013-6-10,65.0,51.0,39.0,50.0,43.9,38.0,96,78,52,0.00,40.00,5,2,9,0.00
2013-6-11,59.0,53.2,47.0,49.0,47.2,44.0,92,80,57,0.00,40.00,3,2,12,0.00
2013-6-12,55.0,52.2,49.0,51.0,48.9,47.0,96,88,77,0.00,40.00,2,1,6,0.00
2013-6-13,65.0,46.4,46.0,50.0,29.0,-99.9,100,72,58,0.00,40.00,5,1,10,0.00
2013-6-14,58.0,54.3,51.0,51.0,49.1,47.0,92,82,71,0.00,40.00,6,2,9,0.00
2013-6-15,69.0,60.1,44.0,55.0,50.0,43.0,96,72,47,0.00,40.00,3,1,7,0.00
2013-6-16,68.0,58.8,46.0,53.0,50.3,45.0,96,74,56,0.00,40.00,7,2,13,0.00
2013-6-17,65.0,58.3,49.0,58.0,51.6,47.0,96,79,62,0.00,40.00,3,1,9,0.00
2013-6-18,63.0,54.9,50.0,54.0,51.4,49.0,96,88,64,0.00,40.00,2,1,6,0.00
2013-6-19,65.0,56.0,46.0,51.0,49.4,46.0,100,80,60,0.00,40.00,3,2,7,0.00
2013-6-25,58.0,56.0,54.0,56.0,54.5,53.0,96,94,93,0.00,40.00,1,0,3,0.00
2013-6-26,60.0,58.5,57.0,57.0,56.5,56.0,96,92,89,0.00,40.00,1,0,5,0.00
2013-6-27,60.0,58.3,56.0,58.0,57.0,55.0,96,95,93,0.00,40.00,0,0,3,0.00
2013-6-28,59.0,59.0,59.0,58.0,58.0,58.0,96,96,96,0.00,40.00,0,0,1,0.00
2013-6-29,72.0,72.0,72.0,59.0,59.0,59.0,63,63,63,0.00,40.00,5,5,9,0.00
2013-6-30,81.0,69.3,61.0,61.0,60.3,58.0,96,76,48,0.00,40.00,2,1,7,0.00
2013-7-3,72.0,65.3,51.0,55.0,51.0,46.0,92,62,39,0.00,40.00,7,3,12,0.00
2013-7-4,71.0,67.5,63.0,51.0,50.0,49.0,62,53,48,0.00,40.00,3,2,9,0.00
2013-7-6,68.0,63.5,59.0,55.0,55.0,55.0,86,74,63,0.00,40.00,1,0,2,0.00
2013-7-8,73.0,62.0,51.0,57.0,53.0,49.0,92,74,57,0.00,40.00,3,2,6,0.00
2013-7-9,70.0,60.5,51.0,56.0,53.0,50.0,96,78,58,0.00,40.00,7,3,12,0.00
2013-7-10,66.0,62.0,53.0,49.0,47.8,46.0,86,61,50,0.00,40.00,5,3,9,0.00
2013-7-11,62.0,57.4,51.0,50.0,47.0,44.0,86,69,53,0.00,40.00,3,2,9,0.00
2013-7-12,68.0,59.0,47.0,51.0,47.7,45.0,92,68,46,0.00,40.00,5,2,9,0.00
2013-7-13,67.0,64.0,59.0,52.0,50.0,49.0,69,60,54,0.00,40.00,5,3,7,0.00
2013-7-15,-200.0,0.0,200.0,-99.9,-99.9,-99.9,0,0,100,0.00,40.00,5,5,10,0.00
2013-7-16,78.0,78.0,78.0,43.0,43.0,43.0,28,28,28,0.00,40.00,5,5,13,0.00
2013-7-17,65.0,62.2,58.0,55.0,53.0,52.0,80,72,65,0.00,40.00,3,2,9,0.00
2013-7-18,65.0,61.3,55.0,55.0,53.3,52.0,89,75,67,0.00,40.00,6,4,10,0.00
2013-7-19,67.0,67.0,67.0,56.0,56.0,56.0,67,67,67,0.00,40.00,6,6,10,0.00
2013-7-20,67.0,63.3,58.0,54.0,52.7,50.0,77,68,62,0.00,40.00,6,4,12,0.00
2013-7-21,64.0,58.2,53.0,55.0,52.8,50.0,89,82,72,0.00,40.00,3,2,6,0.00
2013-7-22,68.0,59.1,51.0,55.0,52.6,49.0,92,80,63,0.00,40.00,3,2,6,0.00
2013-7-23,74.0,60.8,50.0,56.0,52.8,49.0,96,77,53,0.00,40.00,2,1,6,0.00
2013-7-24,48.0,48.0,48.0,47.0,47.0,47.0,96,96,96,0.00,40.00,0,0,1,0.00
2013-7-25,71.0,71.0,71.0,55.0,55.0,55.0,56,56,56,0.00,40.00,6,6,10,0.00
2013-7-26,70.0,62.8,51.0,56.0,52.8,49.0,92,71,61,0.00,40.00,3,2,12,0.00
2013-7-27,65.0,65.0,65.0,51.0,51.0,51.0,60,60,60,0.00,40.00,3,3,7,0.00
2013-7-28,63.0,56.3,51.0,53.0,50.7,48.0,89,81,69,0.00,40.00,3,2,7,0.00
2013-7-29,62.0,54.2,49.0,53.0,50.2,47.0,96,86,72,0.00,40.00,3,1,7,0.00
2013-7-30,61.0,58.0,55.0,55.0,54.0,53.0,92,86,80,0.00,40.00,1,1,3,0.00
2013-7-31,63.0,56.8,54.0,54.0,52.5,51.0,92,86,72,0.00,40.00,3,2,6,0.00
2013-8-1,63.0,57.0,51.0,53.0,51.5,50.0,96,82,69,0.00,40.00,8,4,14,0.00
2013-8-2,63.0,59.2,58.0,55.0,52.8,52.0,80,79,75,0.00,40.00,5,3,15,0.00
2013-8-3,63.0,59.2,56.0,56.0,55.0,54.0,96,86,77,0.00,40.00,5,2,7,0.00
2013-8-4,71.0,59.6,50.0,57.0,53.9,49.0,96,83,61,0.00,40.00,5,2,7,0.00
2013-8-5,71.0,60.8,51.0,57.0,53.3,50.0,96,77,61,0.00,40.00,3,2,6,0.00
2013-8-6,67.0,52.7,46.0,56.0,49.7,46.0,100,90,67,0.00,40.00,3,1,6,0.00
2013-8-7,70.0,60.0,51.0,56.0,53.0,50.0,96,79,61,0.00,40.00,6,2,9,0.00
2013-8-8,71.0,60.7,52.0,56.0,53.5,51.0,96,78,56,0.00,40.00,7,3,12,0.00
2013-8-9,77.0,69.3,53.0,57.0,55.2,50.0,89,62,43,0.00,40.00,3,2,7,0.00
2013-8-10,70.0,62.3,51.0,56.0,54.0,50.0,96,76,61,0.00,40.00,3,2,8,0.00
2013-8-11,69.0,62.0,55.0,55.0,53.8,52.0,92,75,58,0.00,40.00,3,1,7,0.00
2013-8-20,59.0,56.0,53.0,52.0,51.0,50.0,89,83,77,0.00,40.00,1,0,3,0.00
2013-8-21,75.0,75.0,75.0,45.0,45.0,45.0,34,34,34,0.00,40.00,2,2,5,0.00
2013-8-22,80.0,73.7,68.0,58.0,54.0,49.0,70,52,33,0.00,40.00,3,2,7,0.00
2013-8-24,50.0,50.0,50.0,49.0,49.0,49.0,96,96,96,0.00,40.00,0,0,0,0.00
2013-8-25,43.0,42.5,42.0,42.0,42.0,42.0,100,98,96,0.00,40.00,0,0,1,0.00
2013-8-26,61.0,61.0,61.0,53.0,53.0,53.0,74,74,74,0.00,40.00,3,3,13,0.00
2013-8-27,58.0,58.0,58.0,55.0,55.0,55.0,89,89,89,0.00,40.00,1,1,2,0.00
2013-8-28,66.0,65.0,64.0,62.0,61.0,60.0,86,86,86,0.00,40.00,1,-499,3,0.00
2013-8-29,65.0,65.0,65.0,62.0,62.0,62.0,90,90,90,0.00,40.00,1,1,5,0.00
2013-8-30,66.0,65.0,64.0,59.0,58.5,58.0,83,79,75,0.00,40.00,1,0,3,0.00
2013-9-12,58.0,58.0,58.0,57.0,57.0,57.0,96,96,96,0.00,40.00,0,0,2,0.00
2013-9-13,67.0,63.5,59.0,59.0,58.8,58.0,96,84,75,0.00,40.00,5,2,9,0.00
2013-9-14,59.0,56.5,54.0,55.0,53.5,52.0,92,89,86,0.00,40.00,1,0,2,0.00
2013-9-15,60.0,60.0,60.0,59.0,59.0,59.0,96,96,96,0.00,40.00,1,1,5,0.00
2013-9-16,65.0,59.0,55.0,56.0,54.3,53.0,92,84,72,0.00,40.00,1,0,5,0.00
2013-9-17,53.0,53.0,53.0,52.0,52.0,52.0,96,96,96,0.00,40.00,0,0,2,0.00
2013-10-19,47.0,45.5,44.0,47.0,45.5,44.0,100,100,100,0.00,40.00,1,1,5,0.00
2013-10-20,49.0,46.0,43.0,46.0,45.0,43.0,100,96,89,0.00,40.00,3,-332,5,0.00
2013-10-21,44.0,42.2,41.0,44.0,42.2,41.0,100,100,100,0.00,40.00,1,0,2,0.00
2013-10-22,54.0,33.5,47.0,53.0,-0.8,-99.9,96,63,89,0.00,40.00,2,0,7,0.00
2013-10-24,51.0,49.0,47.0,48.0,47.0,46.0,96,92,89,0.00,40.00,0,0,0,0.00
2013-10-26,49.0,48.7,48.0,48.0,48.0,48.0,100,97,96,0.00,40.00,0,0,1,0.00
2013-10-27,50.0,47.3,43.0,47.0,45.0,42.0,96,91,89,0.00,40.00,2,1,9,0.00
2013-10-28,57.0,57.0,57.0,28.0,28.0,28.0,32,32,32,0.00,40.00,3,3,10,0.00
2013-10-29,57.0,57.0,57.0,37.0,37.0,37.0,47,47,47,0.00,40.00,1,1,5,0.00
2013-10-30,50.0,48.0,46.0,46.0,45.3,45.0,96,90,82,0.00,40.00,1,0,3,0.00
2013-10-31,51.0,49.5,48.0,50.0,49.0,48.0,100,98,96,0.00,40.00,5,2,10,0.00
2013-11-1,51.0,49.0,48.0,50.0,48.0,47.0,96,96,96,0.00,40.00,1,0,2,0.00
2013-11-2,48.0,48.0,48.0,48.0,47.6,47.0,100,98,96,0.00,40.00,2,1,9,0.00
2013-11-5,46.0,44.5,42.0,45.0,43.8,42.0,100,97,96,0.00,40.00,1,0,2,0.00
2013-11-7,46.0,46.0,46.0,46.0,46.0,46.0,100,100,100,0.00,40.00,2,2,7,0.00
2013-11-8,50.0,45.5,41.0,47.0,44.5,41.0,100,96,89,0.00,40.00,2,0,6,0.00
2013-11-9,-200.0,0.0,200.0,-99.9,-99.9,-99.9,0,0,100,0.00,40.00,0,0,0,0.00
2013-11-10,46.0,46.0,46.0,42.0,42.0,42.0,85,85,85,0.00,40.00,1,1,5,0.00
2013-11-26,40.0,40.0,40.0,39.0,39.0,39.0,96,96,96,0.00,40.00,0,0,1,0.00
2013-11-27,48.0,44.5,41.0,47.0,44.0,41.0,100,98,96,0.00,40.00,1,0,2,0.00
2013-11-28,46.0,45.0,44.0,45.0,44.3,43.0,100,97,96,0.00,40.00,0,0,1,0.00
2013-11-29,50.0,47.0,44.0,44.0,43.3,42.0,100,87,79,0.00,40.00,2,1,6,0.00
2013-11-30,48.0,31.3,46.0,47.0,-2.3,-99.9,100,65,96,0.00,40.00,6,2,16,0.00
2013-12-1,50.0,45.0,38.0,48.0,43.0,35.0,96,92,88,0.00,40.00,3,2,13,0.00
2013-12-2,39.0,34.8,30.0,37.0,34.0,30.0,100,97,92,0.00,40.00,1,0,6,0.00
2013-12-3,38.0,34.3,27.0,26.0,20.6,17.0,95,58,42,0.00,40.00,3,2,12,0.00
2013-12-4,34.0,26.6,21.0,28.0,23.2,20.0,100,88,61,0.00,40.00,1,0,5,0.00
2013-12-5,29.0,24.0,19.0,29.0,23.5,18.0,100,98,95,0.00,40.00,0,0,1,0.00
2013-12-6,29.0,28.0,27.0,28.0,21.3,17.0,95,76,65,0.00,40.00,5,3,14,0.00
2013-12-7,28.0,17.7,25.0,7.0,-29.3,-99.9,41,27,40,0.00,40.00,3,2,9,0.00
2013-12-8,35.0,29.0,22.0,24.0,23.2,21.0,95,79,63,0.00,40.00,3,1,7,0.00
2013-12-9,33.0,28.5,25.0,32.0,28.2,25.0,100,99,96,0.00,40.00,0,0,2,0.00
2013-12-10,35.0,33.0,32.0,35.0,33.0,32.0,100,100,100,0.00,40.00,0,0,0,0.00
2013-12-11,36.0,32.2,30.0,36.0,32.2,30.0,100,100,100,0.00,40.00,0,0,1,0.00
2013-12-15,48.0,48.0,48.0,46.0,46.0,46.0,92,92,92,0.00,40.00,2,2,6,0.00
2013-12-16,36.0,34.5,33.0,36.0,34.0,32.0,100,98,96,0.00,40.00,1,0,2,0.00
2013-12-17,46.0,45.7,45.0,44.0,43.0,42.0,92,90,89,0.00,40.00,2,1,6,0.00
2013-12-18,41.0,36.0,31.0,33.0,31.3,30.0,96,84,67,0.00,40.00,0,0,0,0.00
2013-12-19,31.0,31.0,31.0,31.0,31.0,31.0,100,100,100,0.00,40.00,0,0,0,0.00
2013-12-20,47.0,35.8,32.0,45.0,35.2,32.0,100,98,92,0.00,40.00,2,0,13,0.00
2013-12-21,-200.0,0.0,200.0,-99.9,-99.9,-99.9,0,0,100,0.00,40.00,0,0,1,0.00
2013-12-22,44.0,40.8,40.0,44.0,40.8,40.0,100,100,100,0.00,40.00,1,0,2,0.00
2013-12-23,47.0,44.5,42.0,45.0,43.0,41.0,96,94,92,0.00,40.00,3,2,15,0.00
2013-12-24,42.0,38.0,36.0,41.0,37.6,35.0,100,98,96,0.00,40.00,0,0,0,0.00
2013-12-25,32.0,31.0,30.0,32.0,31.0,30.0,100,100,100,0.00,40.00,0,0,0,0.00
2013-12-26,47.0,41.0,38.0,42.0,39.0,37.0,100,93,82,0.00,40.00,0,0,0,0.00
2013-12-27,47.0,45.5,44.0,45.0,43.5,42.0,92,92,92,0.00,40.00,1,0,6,0.00
2013-12-28,36.0,23.7,35.0,36.0,-9.6,-99.9,100,67,100,0.00,40.00,1,0,1,0.00
2013-12-29,45.0,39.8,34.0,41.0,38.6,34.0,100,95,85,0.00,40.00,0,0,3,0.00
2013-12-30,43.0,40.0,37.0,42.0,39.5,37.0,100,98,96,0.00,40.00,2,2,3,0.00
2013-12-31,47.0,47.0,47.0,44.0,44.0,44.0,89,89,89,0.00,40.00,0,0,3,0.00
2014-1-1,42.0,41.7,41.0,42.0,41.3,40.0,100,99,96,0.00,40.00,0,0,1,0.00
2014-1-2,48.0,44.5,41.0,46.0,42.8,40.0,100,94,85,0.00,40.00,6,2,18,0.00